createdAt,value
2023-05-06T00:02:40.454Z,51.99
2023-05-06T00:07:50.009Z,51.99
2023-05-06T00:12:59.815Z,52.03
2023-05-06T00:18:09.815Z,52.10
2023-05-06T00:23:19.325Z,52.03
2023-05-06T00:28:28.795Z,51.98
2023-05-06T00:33:38.645Z,51.90
2023-05-06T00:38:48.265Z,52.10
2023-05-06T00:43:57.712Z,52.11
2023-05-06T00:49:07.511Z,52.13
2023-05-06T00:54:17.799Z,51.95
2023-05-06T00:59:27.422Z,52.09
2023-05-06T01:04:37.841Z,51.96
2023-05-06T01:09:57.540Z,52.06
2023-05-06T01:15:16.773Z,52.19
2023-05-06T01:20:27.659Z,52.31
2023-05-06T01:25:37.273Z,52.24
2023-05-06T01:30:59.399Z,52.27
2023-05-06T01:36:21.627Z,52.39
2023-05-06T01:41:35.433Z,52.51
2023-05-06T01:46:46.875Z,52.32
2023-05-06T01:51:58.588Z,52.38
2023-05-06T01:57:08.105Z,52.51
2023-05-06T02:02:17.627Z,52.59
2023-05-06T02:07:27.126Z,52.57
2023-05-06T02:12:36.623Z,52.60
2023-05-06T02:17:46.561Z,52.58
2023-05-06T02:22:56.681Z,52.63
2023-05-06T02:28:06.325Z,52.90
2023-05-06T02:33:15.812Z,52.85
2023-05-06T02:38:27.176Z,52.99
2023-05-06T02:43:36.705Z,53.08
2023-05-06T02:48:46.660Z,53.10
2023-05-06T02:53:56.167Z,53.24
2023-05-06T02:59:05.653Z,53.26
2023-05-06T03:04:15.233Z,53.44
2023-05-06T03:09:24.854Z,53.65
2023-05-06T03:14:34.265Z,53.90
2023-05-06T03:19:44.565Z,54.00
2023-05-06T03:24:54.290Z,54.31
2023-05-06T03:30:03.801Z,54.40
2023-05-06T03:35:14.568Z,54.35
2023-05-06T03:40:24.255Z,54.21
2023-05-06T03:45:33.842Z,54.03
2023-05-06T03:50:43.706Z,53.98
2023-05-06T03:55:53.184Z,54.09
2023-05-06T04:01:03.076Z,53.90
2023-05-06T04:06:12.752Z,53.74
2023-05-06T04:11:22.242Z,53.68
2023-05-06T04:16:31.753Z,53.52
2023-05-06T04:21:41.257Z,53.53
2023-05-06T04:26:51.593Z,53.43
2023-05-06T04:32:01.178Z,53.35
2023-05-06T04:37:11.020Z,53.27
2023-05-06T04:42:20.685Z,53.10
2023-05-06T04:47:30.166Z,52.85
2023-05-06T04:52:39.791Z,52.73
2023-05-06T04:57:49.244Z,52.71
2023-05-06T05:02:58.934Z,52.60
2023-05-06T05:08:09.007Z,52.38
2023-05-06T05:13:18.609Z,52.42
2023-05-06T05:18:29.424Z,52.15
2023-05-06T05:23:38.966Z,51.99
2023-05-06T05:28:48.404Z,51.90
2023-05-06T05:33:58.031Z,51.53
2023-05-06T05:39:07.631Z,51.30
2023-05-06T05:44:17.335Z,51.07
2023-05-06T05:49:26.787Z,50.83
2023-05-06T05:54:37.567Z,50.60
2023-05-06T05:59:46.992Z,50.26
2023-05-06T06:04:57.058Z,50.00
2023-05-06T06:10:07.829Z,49.51
2023-05-06T06:15:18.157Z,49.17
2023-05-06T06:20:27.613Z,48.58
2023-05-06T06:25:37.108Z,48.46
2023-05-06T06:30:46.716Z,48.19
2023-05-06T06:35:56.356Z,47.87
2023-05-06T06:41:06.247Z,47.31
2023-05-06T06:46:15.963Z,46.90
2023-05-06T06:51:25.557Z,46.53
2023-05-06T06:56:35.055Z,46.15
2023-05-06T07:01:46.036Z,45.31
2023-05-06T07:06:55.596Z,45.41
2023-05-06T07:12:06.321Z,44.70
2023-05-06T07:17:16.110Z,44.62
2023-05-06T07:22:25.868Z,44.05
2023-05-06T07:27:35.548Z,43.69
2023-05-06T07:32:45.221Z,43.41
2023-05-06T07:37:54.792Z,43.19
2023-05-06T07:43:04.336Z,42.61
2023-05-06T07:48:14.325Z,41.69
2023-05-06T07:53:24.650Z,41.59
2023-05-06T07:58:34.517Z,41.46
2023-05-06T08:03:44.224Z,41.08
2023-05-06T08:08:53.956Z,40.92
2023-05-06T08:14:03.600Z,40.57
2023-05-06T08:19:13.073Z,40.00
2023-05-06T08:24:22.609Z,39.87
2023-05-06T08:29:32.124Z,39.53
2023-05-06T08:34:41.905Z,39.48
2023-05-06T08:39:51.413Z,39.31
2023-05-06T08:45:01.864Z,39.36
2023-05-06T08:50:13.808Z,38.88
2023-05-06T08:55:25.850Z,38.65
2023-05-06T09:00:37.011Z,38.65
2023-05-06T09:05:46.850Z,38.67
2023-05-06T09:10:56.378Z,38.65
2023-05-06T09:16:06.632Z,38.65
2023-05-06T09:21:16.260Z,38.38
2023-05-06T09:26:28.084Z,38.58
2023-05-06T09:31:44.255Z,38.66
2023-05-06T09:36:57.407Z,38.67
2023-05-06T09:42:07.155Z,38.47
2023-05-06T09:47:17.746Z,38.40
2023-05-06T09:52:27.858Z,38.17
2023-05-06T09:57:38.429Z,38.12
2023-05-06T10:02:49.269Z,38.08
2023-05-06T10:08:00.547Z,37.96
2023-05-06T10:13:10.184Z,37.80
2023-05-06T10:18:22.634Z,37.80
2023-05-06T10:23:41.290Z,37.72
2023-05-06T10:28:55.141Z,37.92
2023-05-06T10:34:09.321Z,37.76
2023-05-06T10:39:19.278Z,37.35
2023-05-06T10:44:59.193Z,37.26
2023-05-06T10:50:29.091Z,37.38
2023-05-06T10:55:40.385Z,37.58
2023-05-06T11:00:58.401Z,37.63
2023-05-06T11:06:09.009Z,37.12
2023-05-06T11:12:00.622Z,37.35
2023-05-06T11:17:30.212Z,37.21
2023-05-06T11:22:46.066Z,37.17
2023-05-06T11:27:57.449Z,37.14
2023-05-06T11:33:10.991Z,37.29
2023-05-06T11:38:20.716Z,37.10
2023-05-06T11:43:30.286Z,36.59
2023-05-06T11:48:39.842Z,36.44
2023-05-06T11:53:49.562Z,36.37
2023-05-06T11:58:59.967Z,36.66
2023-05-06T12:04:10.107Z,36.97
2023-05-06T12:09:22.571Z,36.92
2023-05-06T12:14:32.967Z,37.09
2023-05-06T12:19:43.492Z,37.08
2023-05-06T12:24:53.759Z,36.83
2023-05-06T12:30:04.998Z,36.92
2023-05-06T12:35:30.855Z,36.76
2023-05-06T12:40:41.416Z,37.06
2023-05-06T12:46:09.341Z,36.83
2023-05-06T12:51:27.143Z,36.85
2023-05-06T12:56:36.692Z,37.03
2023-05-06T13:01:46.229Z,37.33
2023-05-06T13:06:57.418Z,37.35
2023-05-06T13:12:07.857Z,37.42
2023-05-06T13:17:17.622Z,37.26
2023-05-06T13:22:27.399Z,37.43
2023-05-06T13:27:37.221Z,37.33
2023-05-06T13:32:47.082Z,36.96
2023-05-06T13:37:56.860Z,36.90
2023-05-06T13:43:06.404Z,36.60
2023-05-06T13:48:16.052Z,36.42
2023-05-06T13:53:25.638Z,36.42
2023-05-06T13:58:35.283Z,36.41
2023-05-06T14:03:44.977Z,36.38
2023-05-06T14:08:54.485Z,36.18
2023-05-06T14:14:04.171Z,36.32
2023-05-06T14:19:14.073Z,36.53
2023-05-06T14:24:23.670Z,36.71
2023-05-06T14:29:33.281Z,36.92
2023-05-06T14:34:42.837Z,36.96
2023-05-06T14:39:52.371Z,37.10
2023-05-06T14:45:01.869Z,37.31
2023-05-06T14:50:14.132Z,37.43
2023-05-06T14:55:23.846Z,37.60
2023-05-06T15:00:33.438Z,37.87
2023-05-06T15:05:42.993Z,37.92
2023-05-06T15:10:53.613Z,38.03
2023-05-06T15:16:03.130Z,38.04
2023-05-06T15:21:13.723Z,37.81
2023-05-06T15:26:23.859Z,37.33
2023-05-06T15:31:39.359Z,37.37
2023-05-06T15:36:53.771Z,37.22
2023-05-06T15:42:04.094Z,37.09
2023-05-06T15:47:13.792Z,37.02
2023-05-06T15:52:23.520Z,36.88
2023-05-06T15:57:35.705Z,36.90
2023-05-06T16:02:45.461Z,37.05
2023-05-06T16:07:56.189Z,37.00
2023-05-06T16:13:05.986Z,37.24
2023-05-06T16:18:15.783Z,37.29
2023-05-06T16:23:26.612Z,37.41
2023-05-06T16:28:37.381Z,37.45
2023-05-06T16:33:48.367Z,37.53
2023-05-06T16:38:57.895Z,37.69
2023-05-06T16:44:07.740Z,37.83
2023-05-06T16:49:17.209Z,37.85
2023-05-06T16:54:26.814Z,38.05
2023-05-06T16:59:36.419Z,38.28
2023-05-06T17:04:46.224Z,38.53
2023-05-06T17:09:55.826Z,38.76
2023-05-06T17:15:06.560Z,39.06
2023-05-06T17:20:17.306Z,39.24
2023-05-06T17:25:26.994Z,39.53
2023-05-06T17:30:36.729Z,39.72
2023-05-06T17:35:46.260Z,39.90
2023-05-06T17:40:55.743Z,40.17
2023-05-06T17:46:06.029Z,40.49
2023-05-06T17:51:16.043Z,40.76
2023-05-06T17:56:25.588Z,41.01
2023-05-06T18:01:35.142Z,41.04
2023-05-06T18:06:46.051Z,41.31
2023-05-06T18:11:55.674Z,41.46
2023-05-06T18:17:05.364Z,41.54
2023-05-06T18:22:14.959Z,41.80
2023-05-06T18:27:25.301Z,42.08
2023-05-06T18:32:35.307Z,42.24
2023-05-06T18:37:45.103Z,42.42
2023-05-06T18:42:56.871Z,42.71
2023-05-06T18:48:06.842Z,43.03
2023-05-06T18:53:16.990Z,43.19
2023-05-06T18:58:26.764Z,43.34
2023-05-06T19:03:37.807Z,43.45
2023-05-06T19:08:47.468Z,43.58
2023-05-06T19:13:57.054Z,43.74
2023-05-06T19:19:07.705Z,43.80
2023-05-06T19:24:17.385Z,43.82
2023-05-06T19:29:26.954Z,43.83
2023-05-06T19:34:36.945Z,43.94
2023-05-06T19:39:47.945Z,44.13
2023-05-06T19:44:57.740Z,44.13
2023-05-06T19:50:09.089Z,44.29
2023-05-06T19:55:19.229Z,44.56
2023-05-06T20:00:30.587Z,44.80
2023-05-06T20:05:40.132Z,45.01
2023-05-06T20:10:51.202Z,45.29
2023-05-06T20:16:02.224Z,45.67
2023-05-06T20:21:11.937Z,46.06
2023-05-06T20:26:23.903Z,46.24
2023-05-06T20:31:34.691Z,46.42
2023-05-06T20:36:46.186Z,46.60
2023-05-06T20:41:55.918Z,46.51
2023-05-06T20:47:10.797Z,46.96
2023-05-06T20:52:21.873Z,46.90
2023-05-06T20:57:31.365Z,47.03
2023-05-06T21:02:41.918Z,47.16
2023-05-06T21:07:52.118Z,47.38
2023-05-06T21:13:02.255Z,47.53
2023-05-06T21:18:11.903Z,47.72
2023-05-06T21:23:22.298Z,47.98
2023-05-06T21:28:31.837Z,48.19
2023-05-06T21:33:41.368Z,48.20
2023-05-06T21:39:03.886Z,48.22
2023-05-06T21:44:14.068Z,48.22
2023-05-06T21:49:23.595Z,48.56
2023-05-06T21:54:33.145Z,48.99
2023-05-06T21:59:42.785Z,49.33
2023-05-06T22:04:52.293Z,49.47
2023-05-06T22:10:01.845Z,49.50
2023-05-06T22:15:15.011Z,49.56
2023-05-06T22:20:25.108Z,49.49
2023-05-06T22:25:34.688Z,49.38
2023-05-06T22:30:44.161Z,49.31
2023-05-06T22:35:53.717Z,49.48
2023-05-06T22:41:03.207Z,49.72
2023-05-06T22:46:12.729Z,50.02
2023-05-06T22:51:22.531Z,50.14
2023-05-06T22:56:32.001Z,50.35
2023-05-06T23:01:41.514Z,50.42
2023-05-06T23:06:51.092Z,50.43
2023-05-06T23:12:01.826Z,50.53
2023-05-06T23:17:11.488Z,50.51
2023-05-06T23:22:21.186Z,50.76
2023-05-06T23:27:30.918Z,50.83
2023-05-06T23:32:41.494Z,50.99
2023-05-06T23:37:50.902Z,51.07
2023-05-06T23:43:00.590Z,51.36
2023-05-06T23:48:11.089Z,51.67
2023-05-06T23:53:20.730Z,51.74
2023-05-06T23:58:30.230Z,51.76
